createdAt,value
2018-06-16T00:01:53.411Z,9.78
2018-06-16T00:04:21.699Z,8.38
2018-06-16T00:06:49.975Z,10.22
2018-06-16T00:09:18.245Z,8.30
2018-06-16T00:11:46.533Z,8.84
2018-06-16T00:14:15.732Z,7.80
2018-06-16T00:16:43.980Z,7.30
2018-06-16T00:19:12.685Z,8.38
2018-06-16T00:21:41.700Z,7.96
2018-06-16T00:24:12.644Z,7.74
2018-06-16T00:26:42.519Z,7.80
2018-06-16T00:29:10.809Z,8.28
2018-06-16T00:31:39.080Z,7.80
2018-06-16T00:34:07.368Z,9.50
2018-06-16T00:36:35.631Z,9.04
2018-06-16T00:39:03.896Z,8.90
2018-06-16T00:41:33.121Z,9.06
2018-06-16T00:44:01.807Z,9.18
2018-06-16T00:46:30.080Z,8.58
2018-06-16T00:48:58.370Z,9.24
2018-06-16T00:51:26.616Z,8.84
2018-06-16T00:53:54.901Z,9.38
2018-06-16T00:56:23.166Z,10.46
2018-06-16T00:58:51.468Z,10.72
2018-06-16T01:01:19.754Z,9.98
2018-06-16T01:03:48.009Z,10.24
2018-06-16T01:06:16.296Z,10.36
2018-06-16T01:08:44.584Z,11.68
2018-06-16T01:11:13.548Z,10.26
2018-06-16T01:13:43.182Z,9.30
2018-06-16T01:16:12.497Z,11.98
2018-06-16T01:18:40.744Z,11.80
2018-06-16T01:21:09.032Z,9.62
2018-06-16T01:23:37.279Z,9.80
2018-06-16T01:26:05.560Z,10.00
2018-06-16T01:28:33.833Z,11.16
2018-06-16T01:31:02.985Z,10.82
2018-06-16T01:33:32.048Z,10.56
2018-06-16T01:36:00.300Z,10.94
2018-06-16T01:38:28.592Z,10.56
2018-06-16T01:40:56.852Z,9.62
2018-06-16T01:43:25.132Z,11.66
2018-06-16T01:45:53.417Z,10.70
2018-06-16T01:48:21.704Z,10.84
2018-06-16T01:50:49.991Z,10.80
2018-06-16T01:53:18.249Z,11.52
2018-06-16T01:55:46.545Z,11.72
2018-06-16T01:58:14.792Z,9.74
2018-06-16T02:00:43.795Z,10.24
2018-06-16T02:03:12.967Z,9.08
2018-06-16T02:05:40.449Z,10.48
2018-06-16T02:08:08.741Z,10.06
2018-06-16T02:10:37.021Z,10.20
2018-06-16T02:13:05.308Z,11.16
2018-06-16T02:15:33.993Z,10.08
2018-06-16T02:18:02.277Z,10.24
2018-06-16T02:20:30.576Z,10.46
2018-06-16T02:22:58.825Z,11.78
2018-06-16T02:25:27.105Z,11.44
2018-06-16T02:27:55.372Z,10.98
2018-06-16T02:30:23.656Z,10.78
2018-06-16T02:32:51.912Z,10.08
2018-06-16T02:35:20.196Z,11.78
2018-06-16T02:37:47.675Z,11.36
2018-06-16T02:40:15.944Z,10.62
2018-06-16T02:42:43.440Z,11.84
2018-06-16T02:45:12.633Z,10.96
2018-06-16T02:47:42.637Z,9.96
2018-06-16T02:50:11.712Z,10.86
2018-06-16T02:52:39.927Z,11.16
2018-06-16T02:55:08.195Z,10.96
2018-06-16T02:57:36.489Z,10.08
2018-06-16T03:00:04.782Z,9.38
2018-06-16T03:02:34.228Z,10.64
2018-06-16T03:05:02.485Z,9.36
2018-06-16T03:07:30.759Z,10.26
2018-06-16T03:09:59.041Z,10.30
2018-06-16T03:12:27.385Z,9.48
2018-06-16T03:14:55.654Z,9.08
2018-06-16T03:17:23.925Z,9.74
2018-06-16T03:19:52.221Z,10.32
2018-06-16T03:22:20.480Z,10.72
2018-06-16T03:24:48.765Z,9.96
2018-06-16T03:27:17.028Z,9.46
2018-06-16T03:29:45.307Z,9.32
2018-06-16T03:32:13.958Z,9.70
2018-06-16T03:34:42.592Z,10.00
2018-06-16T03:37:12.458Z,11.76
2018-06-16T03:39:42.049Z,10.48
2018-06-16T03:42:10.373Z,10.62
2018-06-16T03:44:38.642Z,10.68
2018-06-16T03:47:06.960Z,10.28
2018-06-16T03:49:35.220Z,11.16
2018-06-16T03:52:03.467Z,10.00
2018-06-16T03:54:32.921Z,10.10
2018-06-16T03:57:01.876Z,10.32
2018-06-16T03:59:30.149Z,10.04
2018-06-16T04:01:58.433Z,10.10
2018-06-16T04:04:26.688Z,11.38
2018-06-16T04:06:54.969Z,11.74
2018-06-16T04:09:23.233Z,10.58
2018-06-16T04:11:51.528Z,13.62
2018-06-16T04:14:19.780Z,9.58
2018-06-16T04:16:48.032Z,10.44
2018-06-16T04:19:16.320Z,11.10
2018-06-16T04:21:44.572Z,9.24
2018-06-16T04:24:15.880Z,11.22
2018-06-16T04:26:43.372Z,11.14
2018-06-16T04:29:13.166Z,10.28
2018-06-16T04:31:42.535Z,11.38
2018-06-16T04:34:10.793Z,11.54
2018-06-16T04:36:39.072Z,12.84
2018-06-16T04:39:07.340Z,10.96
2018-06-16T04:41:35.625Z,11.40
2018-06-16T04:44:03.875Z,13.44
2018-06-16T04:46:33.048Z,11.78
2018-06-16T04:49:02.125Z,12.60
2018-06-16T04:51:30.429Z,11.66
2018-06-16T04:53:58.690Z,11.60
2018-06-16T04:56:26.185Z,12.18
2018-06-16T04:58:54.473Z,12.32
2018-06-16T05:01:22.764Z,11.70
2018-06-16T05:03:51.020Z,14.60
2018-06-16T05:06:19.321Z,13.88
2018-06-16T05:08:47.577Z,13.54
2018-06-16T05:11:15.870Z,14.58
2018-06-16T05:13:43.374Z,13.68
2018-06-16T05:16:13.082Z,14.02
2018-06-16T05:18:42.397Z,13.90
2018-06-16T05:21:12.424Z,13.68
2018-06-16T05:23:40.681Z,13.94
2018-06-16T05:26:08.201Z,14.78
2018-06-16T05:28:36.454Z,15.18
2018-06-16T05:31:04.759Z,14.82
2018-06-16T05:33:33.806Z,15.34
2018-06-16T05:36:02.637Z,16.68
2018-06-16T05:38:30.902Z,15.90
2018-06-16T05:40:59.218Z,17.84
2018-06-16T05:43:27.481Z,14.50
2018-06-16T05:45:55.772Z,15.00
2018-06-16T05:48:24.055Z,15.78
2018-06-16T05:50:52.307Z,19.04
2018-06-16T05:53:20.571Z,18.90
2018-06-16T05:55:48.877Z,18.54
2018-06-16T05:58:17.164Z,18.60
2018-06-16T06:00:45.429Z,17.50
2018-06-16T06:03:13.716Z,19.20
2018-06-16T06:05:42.988Z,18.90
2018-06-16T06:08:11.244Z,19.26
2018-06-16T06:10:39.567Z,19.54
2018-06-16T06:13:07.796Z,20.06
2018-06-16T06:15:36.084Z,21.38
2018-06-16T06:18:04.361Z,21.66
2018-06-16T06:20:34.032Z,23.46
2018-06-16T06:23:03.207Z,21.24
2018-06-16T06:25:31.895Z,20.74
2018-06-16T06:28:00.173Z,21.90
2018-06-16T06:30:28.440Z,22.98
2018-06-16T06:32:56.740Z,24.62
2018-06-16T06:35:24.995Z,25.10
2018-06-16T06:37:53.283Z,25.16
2018-06-16T06:40:21.572Z,23.88
2018-06-16T06:42:49.837Z,25.10
2018-06-16T06:45:18.117Z,24.42
2018-06-16T06:47:45.629Z,26.28
2018-06-16T06:50:13.888Z,24.44
2018-06-16T06:52:42.218Z,22.46
2018-06-16T06:55:12.640Z,24.86
2018-06-16T06:57:41.696Z,24.62
2018-06-16T07:00:09.948Z,23.78
2018-06-16T07:02:38.345Z,27.22
2018-06-16T07:05:06.598Z,25.88
2018-06-16T07:07:34.856Z,22.88
2018-06-16T07:10:06.277Z,25.72
2018-06-16T07:12:34.531Z,28.54
2018-06-16T07:15:03.912Z,26.62
2018-06-16T07:17:32.995Z,26.94
2018-06-16T07:20:04.974Z,26.58
2018-06-16T07:22:34.527Z,24.96
2018-06-16T07:25:03.908Z,27.06
2018-06-16T07:27:33.186Z,25.06
2018-06-16T07:30:02.076Z,24.16
2018-06-16T07:32:30.357Z,24.96
2018-06-16T07:34:58.620Z,24.66
2018-06-16T07:37:26.909Z,23.00
2018-06-16T07:39:55.167Z,24.50
2018-06-16T07:42:23.454Z,23.64
2018-06-16T07:44:51.722Z,24.80
2018-06-16T07:47:19.998Z,23.08
2018-06-16T07:49:48.261Z,26.08
2018-06-16T07:52:16.549Z,24.66
2018-06-16T07:54:44.813Z,22.36
2018-06-16T07:57:14.202Z,22.72
2018-06-16T07:59:43.696Z,23.06
2018-06-16T08:02:12.937Z,22.64
2018-06-16T08:04:41.229Z,22.80
2018-06-16T08:07:09.494Z,25.10
2018-06-16T08:09:37.797Z,22.82
2018-06-16T08:12:06.059Z,24.04
2018-06-16T08:14:34.352Z,20.56
2018-06-16T08:17:02.613Z,22.52
2018-06-16T08:19:30.909Z,22.28
2018-06-16T08:21:59.256Z,21.04
2018-06-16T08:24:27.576Z,21.82
2018-06-16T08:26:55.788Z,25.00
2018-06-16T08:29:24.861Z,19.98
2018-06-16T08:31:53.100Z,21.80
2018-06-16T08:34:24.959Z,21.04
2018-06-16T08:36:53.221Z,22.56
2018-06-16T08:39:21.504Z,21.56
2018-06-16T08:41:49.796Z,22.48
2018-06-16T08:44:18.074Z,21.52
2018-06-16T08:46:46.324Z,22.20
2018-06-16T08:49:14.619Z,19.36
2018-06-16T08:51:44.108Z,20.88
2018-06-16T08:54:12.806Z,20.86
2018-06-16T08:56:41.737Z,19.80
2018-06-16T08:59:09.996Z,18.02
2018-06-16T09:01:38.272Z,19.80
2018-06-16T09:04:06.632Z,20.88
2018-06-16T09:06:34.848Z,17.96
2018-06-16T09:09:04.003Z,16.92
2018-06-16T09:11:33.192Z,18.32
2018-06-16T09:14:02.151Z,17.60
2018-06-16T09:16:30.441Z,16.88
2018-06-16T09:18:58.700Z,18.36
2018-06-16T09:21:26.984Z,16.62
2018-06-16T09:23:55.241Z,16.30
2018-06-16T09:26:23.527Z,15.52
2018-06-16T09:28:51.781Z,17.90
2018-06-16T09:31:20.076Z,14.98
2018-06-16T09:33:48.333Z,15.12
2018-06-16T09:36:17.562Z,14.70
2018-06-16T09:38:45.853Z,14.40
2018-06-16T09:41:14.107Z,15.26
2018-06-16T09:43:43.338Z,13.06
2018-06-16T09:46:14.935Z,10.80
2018-06-16T09:48:43.784Z,12.94
2018-06-16T09:51:13.068Z,13.06
2018-06-16T09:53:41.326Z,12.00
2018-06-16T09:56:09.612Z,11.80
2018-06-16T09:58:37.865Z,10.10
2018-06-16T10:01:06.138Z,10.32
2018-06-16T10:03:34.418Z,10.00
2018-06-16T10:06:04.079Z,8.26
2018-06-16T10:08:33.328Z,9.62
2018-06-16T10:11:02.092Z,9.70
2018-06-16T10:13:30.376Z,8.62
2018-06-16T10:15:58.714Z,8.32
2018-06-16T10:18:27.072Z,7.82
2018-06-16T10:20:55.330Z,5.44
2018-06-16T10:23:23.619Z,5.92
2018-06-16T10:25:51.871Z,5.72
2018-06-16T10:28:20.147Z,5.68
2018-06-16T10:30:49.351Z,5.14
2018-06-16T10:33:17.643Z,5.26
2018-06-16T10:35:45.901Z,6.18
2018-06-16T10:38:14.164Z,5.76
2018-06-16T10:40:43.602Z,6.70
2018-06-16T10:43:12.774Z,7.32
2018-06-16T10:45:41.729Z,9.00
2018-06-16T10:48:09.983Z,8.48
2018-06-16T10:50:38.269Z,6.30
2018-06-16T10:53:06.552Z,6.12
2018-06-16T10:55:34.804Z,6.86
2018-06-16T10:58:03.864Z,6.02
2018-06-16T11:00:32.833Z,6.64
2018-06-16T11:03:01.090Z,6.82
2018-06-16T11:05:29.384Z,5.82
2018-06-16T11:07:57.677Z,5.78
2018-06-16T11:10:25.928Z,6.14
2018-06-16T11:12:54.180Z,7.78
2018-06-16T11:15:22.464Z,6.50
2018-06-16T11:17:50.757Z,6.28
2018-06-16T11:20:19.011Z,5.90
2018-06-16T11:22:47.260Z,6.04
2018-06-16T11:25:16.455Z,6.00
2018-06-16T11:27:44.706Z,6.16
2018-06-16T11:30:14.415Z,6.98
2018-06-16T11:32:43.794Z,6.26
2018-06-16T11:35:12.077Z,5.66
2018-06-16T11:37:40.328Z,5.66
2018-06-16T11:40:09.571Z,5.24
2018-06-16T11:42:37.833Z,6.90
2018-06-16T11:45:06.108Z,6.26
2018-06-16T11:47:34.365Z,5.48
2018-06-16T11:50:02.649Z,6.70
2018-06-16T11:52:30.905Z,7.52
2018-06-16T11:54:59.189Z,7.00
2018-06-16T11:57:26.708Z,6.32
2018-06-16T11:59:54.985Z,6.20
2018-06-16T12:02:23.286Z,6.36
2018-06-16T12:04:52.489Z,6.30
2018-06-16T12:07:20.747Z,6.52
2018-06-16T12:09:49.060Z,6.96
2018-06-16T12:12:17.309Z,6.94
2018-06-16T12:14:45.591Z,6.16
2018-06-16T12:17:13.840Z,8.58
2018-06-16T12:19:42.131Z,7.10
2018-06-16T12:22:10.390Z,6.22
2018-06-16T12:24:40.671Z,7.30
2018-06-16T12:27:08.916Z,6.24
2018-06-16T12:29:37.204Z,6.14
2018-06-16T12:32:05.465Z,6.60
2018-06-16T12:34:33.749Z,5.92
2018-06-16T12:37:02.061Z,6.14
2018-06-16T12:39:30.339Z,5.44
2018-06-16T12:41:58.603Z,4.60
2018-06-16T12:44:30.614Z,4.82
2018-06-16T12:46:58.867Z,5.28
2018-06-16T12:49:27.145Z,4.66
2018-06-16T12:51:55.409Z,4.20
2018-06-16T12:54:23.704Z,4.76
2018-06-16T12:56:51.962Z,4.74
2018-06-16T12:59:20.240Z,4.56
2018-06-16T13:01:48.532Z,4.78
2018-06-16T13:04:20.168Z,4.30
2018-06-16T13:06:48.439Z,4.10
2018-06-16T13:09:16.716Z,4.60
2018-06-16T13:11:44.960Z,4.46
2018-06-16T13:14:13.257Z,4.78
2018-06-16T13:16:42.625Z,6.80
2018-06-16T13:19:10.872Z,4.06
2018-06-16T13:21:39.152Z,3.90
2018-06-16T13:24:07.445Z,4.24
2018-06-16T13:26:35.725Z,3.94
2018-06-16T13:29:03.984Z,4.30
2018-06-16T13:31:33.473Z,4.28
2018-06-16T13:34:02.133Z,3.52
2018-06-16T13:36:30.504Z,3.66
2018-06-16T13:38:58.704Z,4.32
2018-06-16T13:41:26.952Z,3.70
2018-06-16T13:43:55.228Z,3.98
2018-06-16T13:46:23.505Z,3.42
2018-06-16T13:48:51.806Z,5.36
2018-06-16T13:51:20.056Z,3.66
2018-06-16T13:53:48.321Z,3.70
2018-06-16T13:56:16.608Z,3.58
2018-06-16T13:58:44.863Z,3.84
2018-06-16T14:01:13.128Z,3.40
2018-06-16T14:03:42.448Z,4.62
2018-06-16T14:06:10.697Z,3.70
2018-06-16T14:08:38.943Z,4.40
2018-06-16T14:11:07.242Z,3.66
2018-06-16T14:13:35.531Z,5.10
2018-06-16T14:16:03.824Z,4.02
2018-06-16T14:18:32.108Z,3.74
2018-06-16T14:21:00.393Z,4.20
2018-06-16T14:23:28.657Z,3.98
2018-06-16T14:25:56.180Z,4.38
2018-06-16T14:28:24.436Z,4.18
2018-06-16T14:30:52.700Z,4.20
2018-06-16T14:33:20.214Z,3.68
2018-06-16T14:35:48.456Z,3.72
2018-06-16T14:38:16.753Z,3.56
2018-06-16T14:40:45.034Z,3.98
2018-06-16T14:43:13.278Z,3.94
2018-06-16T14:45:42.339Z,4.04
2018-06-16T14:48:10.591Z,4.52
2018-06-16T14:50:38.881Z,3.90
2018-06-16T14:53:07.172Z,3.88
2018-06-16T14:55:35.425Z,3.98
2018-06-16T14:58:03.701Z,3.90
2018-06-16T15:00:32.949Z,3.82
2018-06-16T15:03:01.232Z,3.50
2018-06-16T15:05:29.498Z,3.44
2018-06-16T15:07:57.780Z,4.16
2018-06-16T15:10:26.117Z,4.04
2018-06-16T15:12:53.561Z,4.10
2018-06-16T15:15:21.846Z,3.52
2018-06-16T15:17:50.111Z,3.62
2018-06-16T15:20:18.415Z,3.02
2018-06-16T15:22:46.664Z,3.98
2018-06-16T15:25:14.953Z,3.92
2018-06-16T15:27:43.223Z,3.48
2018-06-16T15:30:12.608Z,3.52
2018-06-16T15:32:42.031Z,4.18
2018-06-16T15:35:10.368Z,3.62
2018-06-16T15:37:38.624Z,4.78
2018-06-16T15:40:06.921Z,3.76
2018-06-16T15:42:35.178Z,3.74
2018-06-16T15:45:03.745Z,3.74
2018-06-16T15:47:33.089Z,3.92
2018-06-16T15:50:01.381Z,4.10
2018-06-16T15:52:31.090Z,4.60
2018-06-16T15:54:59.402Z,3.88
2018-06-16T15:57:27.671Z,3.66
2018-06-16T15:59:55.974Z,3.80
2018-06-16T16:02:24.250Z,4.08
2018-06-16T16:04:52.492Z,4.34
2018-06-16T16:07:20.797Z,3.86
2018-06-16T16:09:49.056Z,4.00
2018-06-16T16:12:17.299Z,4.00
2018-06-16T16:14:46.645Z,4.70
2018-06-16T16:17:14.888Z,5.12
2018-06-16T16:19:49.191Z,3.82
2018-06-16T16:22:17.440Z,5.26
2018-06-16T16:24:45.705Z,5.48
2018-06-16T16:27:13.988Z,4.30
2018-06-16T16:29:42.642Z,3.82
2018-06-16T16:32:12.419Z,4.26
2018-06-16T16:34:40.808Z,4.42
2018-06-16T16:37:09.054Z,4.94
2018-06-16T16:39:37.332Z,4.30
2018-06-16T16:42:05.624Z,4.88
2018-06-16T16:44:33.877Z,4.90
2018-06-16T16:47:02.603Z,5.26
2018-06-16T16:49:30.884Z,5.96
2018-06-16T16:51:59.160Z,5.24
2018-06-16T16:54:27.452Z,5.10
2018-06-16T16:56:55.745Z,5.60
2018-06-16T16:59:24.389Z,5.12
2018-06-16T17:01:52.724Z,6.20
2018-06-16T17:04:21.007Z,5.74
2018-06-16T17:06:49.272Z,6.06
2018-06-16T17:09:17.576Z,7.54
2018-06-16T17:11:45.837Z,6.80
2018-06-16T17:14:14.098Z,5.90
2018-06-16T17:16:43.489Z,6.18
2018-06-16T17:19:12.651Z,6.22
2018-06-16T17:21:42.597Z,6.50
2018-06-16T17:24:11.635Z,6.48
2018-06-16T17:26:39.930Z,6.76
2018-06-16T17:29:07.495Z,6.02
2018-06-16T17:31:35.756Z,7.72
2018-06-16T17:34:04.011Z,5.50
2018-06-16T17:36:32.942Z,6.22
2018-06-16T17:39:01.191Z,5.90
2018-06-16T17:41:29.469Z,5.34
2018-06-16T17:43:57.730Z,5.06
2018-06-16T17:46:26.013Z,5.24
2018-06-16T17:48:54.275Z,5.26
2018-06-16T17:51:22.557Z,5.70
2018-06-16T17:53:50.807Z,5.14
2018-06-16T17:56:19.094Z,6.26
2018-06-16T17:58:47.343Z,5.80
2018-06-16T18:01:15.625Z,6.86
2018-06-16T18:03:43.903Z,6.56
2018-06-16T18:06:12.180Z,7.82
2018-06-16T18:08:40.428Z,8.22
2018-06-16T18:11:08.708Z,8.80
2018-06-16T18:13:37.001Z,9.56
2018-06-16T18:16:05.253Z,8.30
2018-06-16T18:18:32.766Z,9.48
2018-06-16T18:21:01.062Z,8.92
2018-06-16T18:23:29.332Z,10.10
2018-06-16T18:25:57.589Z,10.42
2018-06-16T18:28:25.864Z,10.72
2018-06-16T18:30:54.121Z,12.34
2018-06-16T18:33:22.388Z,12.48
2018-06-16T18:35:50.651Z,14.26
2018-06-16T18:38:18.943Z,13.76
2018-06-16T18:40:47.204Z,12.56
2018-06-16T18:43:15.508Z,13.48
2018-06-16T18:45:43.768Z,12.34
2018-06-16T18:48:12.032Z,13.68
2018-06-16T18:50:40.319Z,11.76
2018-06-16T18:53:08.584Z,11.38
2018-06-16T18:55:36.872Z,12.10
2018-06-16T18:58:05.134Z,12.74
2018-06-16T19:00:34.192Z,14.56
2018-06-16T19:03:03.475Z,13.58
2018-06-16T19:05:31.001Z,16.24
2018-06-16T19:07:59.260Z,14.22
2018-06-16T19:10:27.552Z,13.88
2018-06-16T19:12:55.815Z,13.26
2018-06-16T19:15:23.360Z,13.48
2018-06-16T19:17:51.649Z,14.00
2018-06-16T19:20:19.895Z,13.00
2018-06-16T19:22:48.189Z,14.36
2018-06-16T19:25:16.449Z,13.76
2018-06-16T19:27:44.739Z,14.72
2018-06-16T19:30:13.590Z,13.14
2018-06-16T19:32:42.783Z,13.98
2018-06-16T19:35:11.740Z,12.88
2018-06-16T19:37:40.020Z,16.04
2018-06-16T19:40:08.279Z,13.30
2018-06-16T19:42:36.540Z,14.08
2018-06-16T19:45:04.842Z,13.90
2018-06-16T19:47:35.002Z,14.56
2018-06-16T19:50:03.858Z,15.06
2018-06-16T19:52:33.039Z,13.08
2018-06-16T19:55:01.342Z,15.02
2018-06-16T19:57:28.836Z,12.90
2018-06-16T19:59:57.144Z,13.70
2018-06-16T20:02:25.425Z,13.58
2018-06-16T20:04:53.687Z,12.38
2018-06-16T20:07:23.106Z,13.14
2018-06-16T20:09:51.368Z,13.36
2018-06-16T20:12:19.656Z,12.24
2018-06-16T20:14:47.945Z,12.00
2018-06-16T20:17:16.259Z,13.10
2018-06-16T20:19:44.508Z,12.24
2018-06-16T20:22:13.484Z,13.50
2018-06-16T20:24:43.033Z,12.24
2018-06-16T20:27:10.552Z,12.34
2018-06-16T20:29:38.881Z,10.32
2018-06-16T20:32:07.137Z,12.46
2018-06-16T20:34:35.412Z,13.30
2018-06-16T20:37:03.732Z,12.34
2018-06-16T20:39:33.684Z,11.96
2018-06-16T20:42:01.199Z,12.40
2018-06-16T20:44:29.493Z,11.74
2018-06-16T20:46:57.761Z,11.68
2018-06-16T20:49:26.909Z,12.02
2018-06-16T20:51:55.208Z,10.72
2018-06-16T20:54:23.499Z,10.60
2018-06-16T20:56:51.025Z,12.38
2018-06-16T20:59:19.311Z,13.72
2018-06-16T21:01:47.604Z,13.82
2018-06-16T21:04:15.894Z,12.78
2018-06-16T21:06:43.411Z,13.04
2018-06-16T21:09:12.687Z,11.40
2018-06-16T21:11:41.704Z,10.80
2018-06-16T21:14:10.098Z,11.20
2018-06-16T21:16:38.362Z,10.00
2018-06-16T21:19:06.656Z,10.20
2018-06-16T21:21:35.012Z,9.98
2018-06-16T21:24:04.488Z,9.38
2018-06-16T21:26:32.753Z,10.82
2018-06-16T21:29:01.056Z,9.88
2018-06-16T21:31:29.319Z,10.60
2018-06-16T21:33:57.563Z,9.36
2018-06-16T21:36:25.845Z,10.78
2018-06-16T21:38:54.099Z,10.14
2018-06-16T21:41:22.388Z,10.62
2018-06-16T21:43:50.648Z,11.08
2018-06-16T21:46:18.933Z,11.48
2018-06-16T21:48:47.187Z,9.30
2018-06-16T21:51:15.476Z,10.30
2018-06-16T21:53:43.724Z,8.80
2018-06-16T21:56:13.068Z,7.74
2018-06-16T21:58:40.559Z,9.78
2018-06-16T22:01:08.848Z,9.28
2018-06-16T22:03:37.101Z,10.86
2018-06-16T22:06:05.360Z,10.10
2018-06-16T22:08:34.785Z,11.54
2018-06-16T22:11:03.986Z,10.02
2018-06-16T22:13:32.337Z,8.62
2018-06-16T22:16:00.591Z,9.72
2018-06-16T22:18:28.851Z,9.46
2018-06-16T22:20:57.145Z,10.70
2018-06-16T22:23:25.440Z,11.96
2018-06-16T22:25:53.707Z,10.42
2018-06-16T22:28:21.983Z,9.72
2018-06-16T22:30:50.240Z,8.92
2018-06-16T22:33:18.533Z,9.70
2018-06-16T22:35:46.792Z,9.34
2018-06-16T22:38:15.040Z,8.62
2018-06-16T22:40:43.320Z,9.80
2018-06-16T22:43:12.876Z,9.68
2018-06-16T22:45:41.166Z,11.08
2018-06-16T22:48:09.437Z,10.22
2018-06-16T22:50:37.723Z,10.12
2018-06-16T22:53:06.009Z,9.74
2018-06-16T22:55:34.259Z,13.60
2018-06-16T22:58:03.352Z,11.36
2018-06-16T23:00:32.393Z,10.20
2018-06-16T23:03:00.686Z,11.80
2018-06-16T23:05:28.969Z,11.72
2018-06-16T23:07:57.229Z,9.76
2018-06-16T23:10:25.505Z,13.70
2018-06-16T23:12:53.757Z,12.96
2018-06-16T23:15:22.048Z,10.48
2018-06-16T23:17:50.333Z,9.14
2018-06-16T23:20:18.624Z,7.98
2018-06-16T23:22:46.880Z,7.60
2018-06-16T23:25:15.189Z,6.76
2018-06-16T23:27:43.448Z,5.62
2018-06-16T23:30:13.325Z,5.86
2018-06-16T23:32:43.065Z,5.42
2018-06-16T23:35:10.589Z,5.22
2018-06-16T23:37:38.836Z,6.38
2018-06-16T23:40:07.156Z,4.62
2018-06-16T23:42:35.440Z,5.22
2018-06-16T23:45:07.316Z,4.80
2018-06-16T23:47:35.597Z,4.94
2018-06-16T23:50:03.843Z,5.78
2018-06-16T23:52:33.068Z,4.94
2018-06-16T23:55:01.316Z,5.06
2018-06-16T23:57:29.608Z,4.76
2018-06-16T23:59:57.852Z,4.86
